KLNK/LNK METAR and TAF weather

Enter ICAO airport designator
Station Type Date Time Source
KLNK METAR 2019/10/20 18:54 UTC NOAA

KLNK 201854Z 14015G25KT 10SM OVC100 16/08 A2966 RMK AO2 PK WND 15026/1831 RAE04 SLP043 P0000 T01610078 $


Station Type Date Time Source
KLNK Decoded METAR 2019/10/20 18:54 UTC NOAA

LINCOLN MUNICIPAL AIRPORT, NE, United States (KLNK) 40-50N 96-46W 364M
Oct 20, 2019 - 02:54 PM EDT / 2019.10.20 1854 UTC
Wind: from the SE (140 degrees) at 17 MPH (15 KT) gusting to 29 MPH (25 KT):0
Visibility: 10 mile(s):0
Sky conditions: overcast
Precipitation last hour: A trace
Temperature: 61.0 F (16.1 C)
Dew Point: 46.0 F (7.8 C)
Relative Humidity: 57%
Pressure (altimeter): 29.66 in. Hg (1004 hPa)
ob: KLNK 201854Z 14015G25KT 10SM OVC100 16/08 A2966 RMK AO2 PK WND 15026/1831 RAE04 SLP043 P0000 T01610078
cycle: 19

Station Type Date Time Source
KLNK TAF 2019/10/20 18:22 UTC NOAA

TAF KLNK 201720Z 2018/2118 17020G30KT P6SM VCSH OVC100
FM202200 20015G26KT P6SM VCSH BKN070
TEMPO 2023/2102 4SM -TSRA BKN040CB
FM210200 19011KT P6SM BKN100
FM210400 22010KT P6SM BKN100
FM211400 29017G25KT P6SM BKN070

Example: see airport list